Denver, Illinois
Current Conditions -  °F | °C
As of 7:35 PM on Friday 24 Oct 2014 (Local Time) from KMQB Reporting Station
Clear Clear  
Wind Chill: 59°   Ceiling: Unl
Heat Index: 59°   Visibility: 10mi
Dew Point: 52°   Wind: 3mph
Humidity: 77%   Direction: 170°S
Pressure: 29.97"   Gusts: NA
Location:  40.4155°N, 91.0269°W
Report Text: KMQB 250035Z AUTO 17003KT 10SM CLR 15/11 A2997 RMK AO2 T01520111
Loading
Personal Weather Stations






























Interactive Weather Map
Tropical Storm Tracking
New forecast layout! Learn more

10-Day Weather Forecast

Advertisements
Track Severe Weather on mobile